createdAt,value
2019-04-11T00:00:06.876Z,1015.11
2019-04-11T00:01:05.971Z,1015.13
2019-04-11T00:02:06.715Z,1015.14
2019-04-11T00:03:05.723Z,1015.11
2019-04-11T00:04:06.103Z,1015.14
2019-04-11T00:05:06.423Z,1015.14
2019-04-11T00:06:05.779Z,1015.16
2019-04-11T00:07:05.959Z,1015.18
2019-04-11T00:08:06.033Z,1015.15
2019-04-11T00:09:06.090Z,1015.17
2019-04-11T00:10:06.291Z,1015.16
2019-04-11T00:11:06.008Z,1015.21
2019-04-11T00:13:17.289Z,1015.22
2019-04-11T00:14:05.885Z,1015.22
2019-04-11T00:15:06.429Z,1015.22
2019-04-11T00:16:06.901Z,1015.20
2019-04-11T00:17:05.923Z,1015.27
2019-04-11T00:18:06.219Z,1015.28
2019-04-11T00:19:07.209Z,1015.27
2019-04-11T00:20:05.969Z,1015.26
2019-04-11T00:21:06.755Z,1015.27
2019-04-11T00:22:05.997Z,1015.28
2019-04-11T00:23:06.175Z,1015.32
2019-04-11T00:24:07.077Z,1015.28
2019-04-11T00:25:07.036Z,1015.28
2019-04-11T00:26:06.589Z,1015.28
2019-04-11T00:27:06.075Z,1015.24
2019-04-11T00:28:06.081Z,1015.29
2019-04-11T00:29:06.095Z,1015.27
2019-04-11T00:30:06.113Z,1015.28
2019-04-11T00:31:06.405Z,1015.25
2019-04-11T00:32:08.037Z,1015.25
2019-04-11T00:33:06.161Z,1015.22
2019-04-11T00:34:06.840Z,1015.27
2019-04-11T00:35:07.178Z,1015.27
2019-04-11T00:36:06.334Z,1015.27
2019-04-11T00:37:06.212Z,1015.22
2019-04-11T00:38:06.224Z,1015.25
2019-04-11T00:39:06.237Z,1015.25
2019-04-11T00:40:06.258Z,1015.23
2019-04-11T00:41:06.265Z,1015.25
2019-04-11T00:42:06.294Z,1015.28
2019-04-11T00:43:07.322Z,1015.25
2019-04-11T00:44:06.428Z,1015.29
2019-04-11T00:45:07.447Z,1015.26
2019-04-11T00:46:06.339Z,1015.29
2019-04-11T00:47:06.945Z,1015.31
2019-04-11T00:48:06.368Z,1015.34
2019-04-11T00:49:06.383Z,1015.34
2019-04-11T00:50:07.355Z,1015.37
2019-04-11T00:51:07.611Z,1015.31
2019-04-11T00:52:06.598Z,1015.31
2019-04-11T00:53:06.576Z,1015.33
2019-04-11T00:54:06.693Z,1015.33
2019-04-11T00:55:07.157Z,1015.33
2019-04-11T00:56:06.485Z,1015.33
2019-04-11T00:57:06.613Z,1015.33
2019-04-11T00:58:07.494Z,1015.31
2019-04-11T00:59:06.525Z,1015.31
2019-04-11T01:00:06.931Z,1015.30
2019-04-11T01:01:07.222Z,1015.35
2019-04-11T01:02:07.280Z,1015.32
2019-04-11T01:03:06.581Z,1015.35
2019-04-11T01:04:07.591Z,1015.34
2019-04-11T01:05:07.546Z,1015.33
2019-04-11T01:06:06.774Z,1015.37
2019-04-11T01:07:06.861Z,1015.37
2019-04-11T01:08:07.268Z,1015.39
2019-04-11T01:09:06.673Z,1015.43
2019-04-11T01:10:06.749Z,1015.36
2019-04-11T01:11:07.760Z,1015.39
2019-04-11T01:12:06.714Z,1015.43
2019-04-11T01:13:07.152Z,1015.36
2019-04-11T01:14:07.756Z,1015.38
2019-04-11T01:15:07.054Z,1015.45
2019-04-11T01:16:07.115Z,1015.45
2019-04-11T01:17:07.837Z,1015.47
2019-04-11T01:18:06.794Z,1015.42
2019-04-11T01:19:06.808Z,1015.44
2019-04-11T01:20:07.039Z,1015.41
2019-04-11T01:21:06.835Z,1015.43
2019-04-11T01:22:07.733Z,1015.46
2019-04-11T01:23:06.921Z,1015.49
2019-04-11T01:24:07.193Z,1015.45
2019-04-11T01:25:06.893Z,1015.49
2019-04-11T01:26:06.909Z,1015.47
2019-04-11T01:27:07.772Z,1015.51
2019-04-11T01:28:06.936Z,1015.47
2019-04-11T01:29:07.210Z,1015.49
2019-04-11T01:30:08.137Z,1015.48
2019-04-11T01:31:06.979Z,1015.48
2019-04-11T01:32:06.992Z,1015.46
2019-04-11T01:33:07.006Z,1015.44
2019-04-11T01:34:07.018Z,1015.50
2019-04-11T01:35:07.035Z,1015.52
2019-04-11T01:36:07.086Z,1015.49
2019-04-11T01:37:07.274Z,1015.54
2019-04-11T01:38:08.193Z,1015.50
2019-04-11T01:39:07.096Z,1015.52
2019-04-11T01:40:07.759Z,1015.49
2019-04-11T01:41:07.121Z,1015.46
2019-04-11T01:42:07.133Z,1015.56
2019-04-11T01:43:08.108Z,1015.55
2019-04-11T01:44:08.618Z,1015.50
2019-04-11T01:45:07.506Z,1015.54
2019-04-11T01:46:07.768Z,1015.52
2019-04-11T01:47:07.202Z,1015.54
2019-04-11T01:48:07.219Z,1015.57
2019-04-11T01:49:08.092Z,1015.54
2019-04-11T01:50:08.248Z,1015.54
2019-04-11T01:51:07.556Z,1015.55
2019-04-11T01:52:07.279Z,1015.55
2019-04-11T01:53:07.287Z,1015.58
2019-04-11T01:54:07.774Z,1015.59
2019-04-11T01:55:08.266Z,1015.56
2019-04-11T01:56:07.329Z,1015.59
2019-04-11T01:57:07.581Z,1015.52
2019-04-11T01:58:07.360Z,1015.59
2019-04-11T01:59:07.372Z,1015.58
2019-04-11T02:00:08.063Z,1015.61
2019-04-11T02:01:08.368Z,1015.64
2019-04-11T02:02:07.514Z,1015.63
2019-04-11T02:03:08.756Z,1015.65
2019-04-11T02:04:07.750Z,1015.65
2019-04-11T02:05:08.360Z,1015.66
2019-04-11T02:06:07.672Z,1015.64
2019-04-11T02:07:07.483Z,1015.66
2019-04-11T02:08:07.499Z,1015.63
2019-04-11T02:09:08.095Z,1015.66
2019-04-11T02:10:08.443Z,1015.66
2019-04-11T02:11:08.186Z,1015.66
2019-04-11T02:12:07.554Z,1015.66
2019-04-11T02:13:07.845Z,1015.69
2019-04-11T02:14:14.101Z,1015.66
2019-04-11T02:15:08.300Z,1015.66
2019-04-11T02:16:08.495Z,1015.66
2019-04-11T02:17:08.548Z,1015.67
2019-04-11T02:18:07.669Z,1015.69
2019-04-11T02:19:07.961Z,1015.68
2019-04-11T02:20:07.667Z,1015.71
2019-04-11T02:21:07.678Z,1015.72
2019-04-11T02:22:08.659Z,1015.72
2019-04-11T02:23:07.708Z,1015.75
2019-04-11T02:24:07.882Z,1015.75
2019-04-11T02:25:08.122Z,1015.79
2019-04-11T02:26:07.751Z,1015.80
2019-04-11T02:27:08.555Z,1015.80
2019-04-11T02:28:08.565Z,1015.76
2019-04-11T02:29:08.883Z,1015.78
2019-04-11T02:30:08.800Z,1015.80
2019-04-11T02:31:10.158Z,1015.81
2019-04-11T02:32:09.687Z,1015.80
2019-04-11T02:33:10.036Z,1015.83
2019-04-11T02:34:08.677Z,1015.81
2019-04-11T02:35:08.681Z,1015.80
2019-04-11T02:36:09.537Z,1015.80
2019-04-11T02:37:09.287Z,1015.85
2019-04-11T02:38:09.537Z,1015.84
2019-04-11T02:39:12.860Z,1015.86
2019-04-11T02:40:08.147Z,1015.91
2019-04-11T02:41:08.676Z,1015.86
2019-04-11T02:42:10.432Z,1015.93
2019-04-11T02:43:09.867Z,1015.90
2019-04-11T02:44:27.064Z,1015.92
2019-04-11T02:45:23.083Z,1015.89
2019-04-11T02:46:17.433Z,1015.92
2019-04-11T02:47:11.779Z,1015.93
2019-04-11T02:48:10.750Z,1015.94
2019-04-11T02:49:08.662Z,1015.93
2019-04-11T02:50:08.995Z,1015.93
2019-04-11T02:51:08.095Z,1015.93
2019-04-11T02:52:09.539Z,1015.96
2019-04-11T02:53:09.479Z,1015.94
2019-04-11T02:54:08.135Z,1015.95
2019-04-11T02:55:10.280Z,1015.92
2019-04-11T02:56:10.732Z,1015.94
2019-04-11T02:57:09.855Z,1015.92
2019-04-11T02:58:08.200Z,1015.94
2019-04-11T02:59:09.041Z,1015.94
2019-04-11T03:00:08.978Z,1015.98
2019-04-11T03:01:10.640Z,1015.96
2019-04-11T03:02:09.039Z,1015.89
2019-04-11T03:03:10.115Z,1015.89
2019-04-11T03:04:08.420Z,1015.91
2019-04-11T03:05:10.084Z,1015.86
2019-04-11T03:06:09.288Z,1015.93
2019-04-11T03:07:09.837Z,1015.95
2019-04-11T03:08:12.185Z,1015.93
2019-04-11T03:09:08.358Z,1015.92
2019-04-11T03:10:11.324Z,1015.93
2019-04-11T03:11:10.690Z,1015.95
2019-04-11T03:12:09.437Z,1015.95
2019-04-11T03:13:08.624Z,1016.00
2019-04-11T03:14:09.822Z,1016.00
2019-04-11T03:15:24.374Z,1015.95
2019-04-11T03:16:24.711Z,1015.97
2019-04-11T03:17:16.951Z,1015.93
2019-04-11T03:18:10.135Z,1015.99
2019-04-11T03:19:22.534Z,1015.95
2019-04-11T03:20:21.053Z,1015.94
2019-04-11T03:21:13.679Z,1015.99
2019-04-11T03:22:09.827Z,1015.99
2019-04-11T03:23:10.854Z,1016.06
2019-04-11T03:24:10.909Z,1016.01
2019-04-11T03:25:08.715Z,1016.02
2019-04-11T03:26:10.204Z,1015.98
2019-04-11T03:27:09.900Z,1016.00
2019-04-11T03:28:14.094Z,1016.07
2019-04-11T03:29:09.167Z,1016.02
2019-04-11T03:30:15.020Z,1016.02
2019-04-11T03:31:42.111Z,1016.03
2019-04-11T03:32:49.399Z,1016.04
2019-04-11T03:36:00.100Z,1016.03
2019-04-11T03:36:59.981Z,1016.01
2019-04-11T03:37:39.313Z,1016.01
2019-04-11T03:38:33.081Z,1016.00
2019-04-11T03:39:29.196Z,1016.00
2019-04-11T03:40:29.127Z,1016.05
2019-04-11T03:41:25.329Z,1016.04
2019-04-11T03:42:21.654Z,1016.03
2019-04-11T03:43:23.076Z,1016.08
2019-04-11T03:44:16.952Z,1016.04
2019-04-11T03:45:34.735Z,1016.09
2019-04-11T03:46:25.070Z,1016.09
2019-04-11T03:47:25.359Z,1016.08
2019-04-11T03:48:23.633Z,1016.10
2019-04-11T03:49:20.663Z,1016.09
2019-04-11T03:50:15.624Z,1016.11
2019-04-11T03:51:10.639Z,1016.09
2019-04-11T03:52:10.602Z,1016.08
2019-04-11T03:53:11.409Z,1016.12
2019-04-11T03:54:09.831Z,1016.11
2019-04-11T03:55:09.341Z,1016.13
2019-04-11T03:56:09.771Z,1016.17
2019-04-11T03:57:09.732Z,1016.16
2019-04-11T03:58:09.168Z,1016.15
2019-04-11T03:59:13.670Z,1016.14
2019-04-11T04:00:10.299Z,1016.08
2019-04-11T04:01:11.535Z,1016.13
2019-04-11T04:02:10.787Z,1016.12
2019-04-11T04:03:11.152Z,1016.17
2019-04-11T04:04:11.101Z,1016.17
2019-04-11T04:05:10.618Z,1016.14
2019-04-11T04:06:09.451Z,1016.17
2019-04-11T04:07:12.305Z,1016.17
2019-04-11T04:08:10.752Z,1016.19
2019-04-11T04:09:10.715Z,1016.20
2019-04-11T04:10:13.007Z,1016.21
2019-04-11T04:11:09.236Z,1016.26
2019-04-11T04:12:09.998Z,1016.28
2019-04-11T04:13:14.206Z,1016.29
2019-04-11T04:14:10.444Z,1016.24
2019-04-11T04:15:10.757Z,1016.26
2019-04-11T04:16:19.818Z,1016.25
2019-04-11T04:17:11.025Z,1016.31
2019-04-11T04:18:10.199Z,1016.28
2019-04-11T04:19:11.703Z,1016.32
2019-04-11T04:20:10.935Z,1016.28
2019-04-11T04:21:10.840Z,1016.31
2019-04-11T04:22:09.327Z,1016.32
2019-04-11T04:23:10.230Z,1016.33
2019-04-11T04:24:10.563Z,1016.33
2019-04-11T04:25:10.276Z,1016.37
2019-04-11T04:26:11.570Z,1016.36
2019-04-11T04:27:10.062Z,1016.40
2019-04-11T04:28:10.133Z,1016.36
2019-04-11T04:29:09.423Z,1016.41
2019-04-11T04:30:10.991Z,1016.44
2019-04-11T04:31:11.200Z,1016.41
2019-04-11T04:32:09.501Z,1016.42
2019-04-11T04:33:10.876Z,1016.42
2019-04-11T04:34:09.644Z,1016.43
2019-04-11T04:35:14.454Z,1016.45
2019-04-11T04:36:11.067Z,1016.47
2019-04-11T04:37:09.531Z,1016.50
2019-04-11T04:38:11.289Z,1016.50
2019-04-11T04:39:10.649Z,1016.54
2019-04-11T04:40:26.913Z,1016.55
2019-04-11T04:41:19.898Z,1016.59
2019-04-11T04:42:21.255Z,1016.58
2019-04-11T04:43:11.771Z,1016.57
2019-04-11T04:44:09.951Z,1016.59
2019-04-11T04:45:11.810Z,1016.57
2019-04-11T04:46:26.262Z,1016.59
2019-04-11T04:47:19.290Z,1016.56
2019-04-11T04:48:13.717Z,1016.60
2019-04-11T04:49:11.043Z,1016.65
2019-04-11T04:50:11.053Z,1016.62
2019-04-11T04:51:11.481Z,1016.64
2019-04-11T04:52:11.899Z,1016.64
2019-04-11T04:53:09.872Z,1016.69
2019-04-11T04:54:16.369Z,1016.70
2019-04-11T04:55:10.639Z,1016.73
2019-04-11T04:56:11.090Z,1016.74
2019-04-11T04:57:12.963Z,1016.76
2019-04-11T04:58:09.809Z,1016.75
2019-04-11T04:59:11.970Z,1016.77
2019-04-11T05:00:11.584Z,1016.77
2019-04-11T05:01:10.076Z,1016.82
2019-04-11T05:02:11.006Z,1016.80
2019-04-11T05:03:10.397Z,1016.80
2019-04-11T05:04:11.336Z,1016.80
2019-04-11T05:05:11.319Z,1016.83
2019-04-11T05:06:10.158Z,1016.83
2019-04-11T05:07:11.630Z,1016.84
2019-04-11T05:08:10.729Z,1016.82
2019-04-11T05:09:10.707Z,1016.84
2019-04-11T05:10:11.255Z,1016.85
2019-04-11T05:11:10.156Z,1016.88
2019-04-11T05:12:10.017Z,1016.85
2019-04-11T05:13:10.083Z,1016.90
2019-04-11T05:14:10.491Z,1016.92
2019-04-11T05:15:10.176Z,1016.94
2019-04-11T05:16:17.277Z,1016.92
2019-04-11T05:17:10.754Z,1016.94
2019-04-11T05:18:11.508Z,1016.93
2019-04-11T05:19:10.088Z,1016.94
2019-04-11T05:20:10.102Z,1016.91
2019-04-11T05:21:10.757Z,1016.93
2019-04-11T05:22:10.580Z,1016.97
2019-04-11T05:23:10.142Z,1016.90
2019-04-11T05:24:10.389Z,1016.96
2019-04-11T05:25:10.613Z,1016.95
2019-04-11T05:26:10.954Z,1016.91
2019-04-11T05:27:10.482Z,1016.91
2019-04-11T05:28:10.210Z,1016.93
2019-04-11T05:29:11.150Z,1016.98
2019-04-11T05:30:11.247Z,1016.94
2019-04-11T05:31:10.260Z,1016.95
2019-04-11T05:32:11.272Z,1016.94
2019-04-11T05:33:11.548Z,1016.96
2019-04-11T05:34:10.298Z,1017.00
2019-04-11T05:35:11.070Z,1017.01
2019-04-11T05:36:10.317Z,1017.01
2019-04-11T05:37:11.086Z,1016.99
2019-04-11T05:38:10.448Z,1017.06
2019-04-11T05:39:10.703Z,1017.05
2019-04-11T05:40:10.374Z,1017.06
2019-04-11T05:41:12.280Z,1017.08
2019-04-11T05:42:11.269Z,1017.08
2019-04-11T05:43:11.449Z,1017.06
2019-04-11T05:44:10.998Z,1017.07
2019-04-11T05:45:16.917Z,1017.07
2019-04-11T05:46:23.939Z,1017.08
2019-04-11T05:47:14.664Z,1017.09
2019-04-11T05:48:11.533Z,1017.10
2019-04-11T05:49:11.350Z,1017.08
2019-04-11T05:50:13.253Z,1017.08
2019-04-11T05:51:10.941Z,1017.12
2019-04-11T05:52:10.540Z,1017.13
2019-04-11T05:53:10.552Z,1017.09
2019-04-11T05:54:10.765Z,1017.08
2019-04-11T05:55:12.347Z,1017.07
2019-04-11T05:56:11.243Z,1017.11
2019-04-11T05:57:11.257Z,1017.12
2019-04-11T05:58:14.085Z,1017.11
2019-04-11T05:59:14.668Z,1017.11
2019-04-11T06:00:11.745Z,1017.15
2019-04-11T06:01:12.743Z,1017.13
2019-04-11T06:02:11.066Z,1017.16
2019-04-11T06:03:10.690Z,1017.14
2019-04-11T06:04:15.190Z,1017.18
2019-04-11T06:05:11.060Z,1017.16
2019-04-11T06:06:10.861Z,1017.17
2019-04-11T06:07:11.917Z,1017.20
2019-04-11T06:08:12.447Z,1017.22
2019-04-11T06:09:12.055Z,1017.20
2019-04-11T06:10:12.817Z,1017.24
2019-04-11T06:11:14.437Z,1017.22
2019-04-11T06:12:11.656Z,1017.23
2019-04-11T06:13:12.073Z,1017.25
2019-04-11T06:14:11.112Z,1017.26
2019-04-11T06:15:11.604Z,1017.25
2019-04-11T06:16:10.872Z,1017.28
2019-04-11T06:17:11.392Z,1017.26
2019-04-11T06:18:22.837Z,1017.26
2019-04-11T06:19:10.905Z,1017.33
2019-04-11T06:20:11.578Z,1017.31
2019-04-11T06:21:11.687Z,1017.31
2019-04-11T06:22:10.955Z,1017.29
2019-04-11T06:23:10.959Z,1017.29
2019-04-11T06:24:12.033Z,1017.32
2019-04-11T06:25:11.226Z,1017.33
2019-04-11T06:26:11.027Z,1017.37
2019-04-11T06:27:12.588Z,1017.37
2019-04-11T06:28:11.737Z,1017.43
2019-04-11T06:29:17.415Z,1017.39
2019-04-11T06:30:12.143Z,1017.42
2019-04-11T06:31:11.069Z,1017.42
2019-04-11T06:32:11.765Z,1017.42
2019-04-11T06:33:12.259Z,1017.44
2019-04-11T06:34:11.397Z,1017.43
2019-04-11T06:35:11.577Z,1017.47
2019-04-11T06:36:11.817Z,1017.47
2019-04-11T06:37:11.795Z,1017.47
2019-04-11T06:38:11.166Z,1017.51
2019-04-11T06:39:12.301Z,1017.48
2019-04-11T06:40:11.762Z,1017.46
2019-04-11T06:41:12.429Z,1017.48
2019-04-11T06:42:11.223Z,1017.51
2019-04-11T06:43:11.914Z,1017.51
2019-04-11T06:44:12.271Z,1017.56
2019-04-11T06:45:11.336Z,1017.59
2019-04-11T06:46:11.282Z,1017.54
2019-04-11T06:47:12.407Z,1017.54
2019-04-11T06:48:11.597Z,1017.57
2019-04-11T06:49:12.006Z,1017.60
2019-04-11T06:50:11.344Z,1017.63
2019-04-11T06:51:11.585Z,1017.66
2019-04-11T06:52:11.397Z,1017.63
2019-04-11T06:53:11.499Z,1017.60
2019-04-11T06:54:11.392Z,1017.63
2019-04-11T06:55:11.406Z,1017.59
2019-04-11T06:56:12.445Z,1017.63
2019-04-11T06:57:11.786Z,1017.58
2019-04-11T06:58:11.449Z,1017.66
2019-04-11T06:59:12.212Z,1017.67
2019-04-11T07:00:12.542Z,1017.65
2019-04-11T07:01:11.969Z,1017.67
2019-04-11T07:02:17.949Z,1017.71
2019-04-11T07:03:19.848Z,1017.71
2019-04-11T07:04:11.536Z,1017.68
2019-04-11T07:05:11.547Z,1017.72
2019-04-11T07:06:11.562Z,1017.64
2019-04-11T07:07:12.805Z,1017.67
2019-04-11T07:08:11.704Z,1017.69
2019-04-11T07:09:12.466Z,1017.68
2019-04-11T07:10:11.770Z,1017.60
2019-04-11T07:11:11.633Z,1017.64
2019-04-11T07:12:11.748Z,1017.66
2019-04-11T07:13:12.120Z,1017.63
2019-04-11T07:14:12.488Z,1017.67
2019-04-11T07:15:12.214Z,1017.68
2019-04-11T07:16:11.702Z,1017.68
2019-04-11T07:17:12.673Z,1017.66
2019-04-11T07:18:12.007Z,1017.69
2019-04-11T07:19:11.815Z,1017.66
2019-04-11T07:20:12.953Z,1017.68
2019-04-11T07:21:11.774Z,1017.72
2019-04-11T07:22:11.792Z,1017.66
2019-04-11T07:23:11.802Z,1017.69
2019-04-11T07:24:11.852Z,1017.65
2019-04-11T07:25:12.451Z,1017.70
2019-04-11T07:26:12.171Z,1017.69
2019-04-11T07:27:11.863Z,1017.66
2019-04-11T07:28:11.878Z,1017.77
2019-04-11T07:29:13.005Z,1017.73
2019-04-11T07:30:11.909Z,1017.78
2019-04-11T07:31:12.809Z,1017.76
2019-04-11T07:32:11.941Z,1017.71
2019-04-11T07:33:12.752Z,1017.74
2019-04-11T07:34:11.966Z,1017.80
2019-04-11T07:35:12.967Z,1017.78
2019-04-11T07:36:12.462Z,1017.77
2019-04-11T07:37:12.639Z,1017.80
2019-04-11T07:38:12.030Z,1017.80
2019-04-11T07:39:12.855Z,1017.77
2019-04-11T07:40:13.115Z,1017.79
2019-04-11T07:41:12.763Z,1017.80
2019-04-11T07:42:13.723Z,1017.86
2019-04-11T07:43:13.882Z,1017.83
2019-04-11T07:44:13.119Z,1017.80
2019-04-11T07:45:14.109Z,1017.85
2019-04-11T07:46:12.678Z,1017.84
2019-04-11T07:47:17.331Z,1017.83
2019-04-11T07:48:12.860Z,1017.85
2019-04-11T07:49:12.204Z,1017.86
2019-04-11T07:50:12.292Z,1017.88
2019-04-11T07:51:13.188Z,1017.87
2019-04-11T07:52:12.230Z,1017.86
2019-04-11T07:53:12.867Z,1017.86
2019-04-11T07:54:13.625Z,1017.88
2019-04-11T07:55:13.144Z,1017.88
2019-04-11T07:56:12.298Z,1017.90
2019-04-11T07:57:12.933Z,1017.88
2019-04-11T07:58:13.158Z,1017.90
2019-04-11T07:59:12.909Z,1017.91
2019-04-11T08:00:12.792Z,1017.90
2019-04-11T08:01:12.674Z,1017.91
2019-04-11T08:02:12.465Z,1017.94
2019-04-11T08:03:12.409Z,1017.93
2019-04-11T08:04:12.712Z,1017.87
2019-04-11T08:05:13.238Z,1017.90
2019-04-11T08:06:13.310Z,1017.90
2019-04-11T08:07:13.170Z,1017.91
2019-04-11T08:08:13.386Z,1017.89
2019-04-11T08:09:13.170Z,1017.95
2019-04-11T08:10:12.543Z,1017.93
2019-04-11T08:11:13.566Z,1017.91
2019-04-11T08:12:12.883Z,1017.94
2019-04-11T08:13:12.551Z,1017.93
2019-04-11T08:14:12.621Z,1017.95
2019-04-11T08:15:13.339Z,1017.98
2019-04-11T08:16:12.646Z,1017.96
2019-04-11T08:17:12.622Z,1017.96
2019-04-11T08:18:12.630Z,1017.95
2019-04-11T08:19:13.146Z,1017.96
2019-04-11T08:20:13.175Z,1017.95
2019-04-11T08:21:12.676Z,1017.97
2019-04-11T08:22:12.693Z,1017.97
2019-04-11T08:23:13.723Z,1017.99
2019-04-11T08:24:12.723Z,1018.02
2019-04-11T08:25:13.290Z,1018.04
2019-04-11T08:26:13.663Z,1018.03
2019-04-11T08:27:13.425Z,1018.07
2019-04-11T08:28:14.089Z,1018.03
2019-04-11T08:29:15.569Z,1018.03
2019-04-11T08:30:12.859Z,1018.09
2019-04-11T08:31:13.260Z,1018.09
2019-04-11T08:32:13.690Z,1018.12
2019-04-11T08:33:14.065Z,1018.08
2019-04-11T08:34:13.249Z,1018.12
2019-04-11T08:35:12.898Z,1018.13
2019-04-11T08:36:13.686Z,1018.11
2019-04-11T08:37:13.643Z,1018.09
2019-04-11T08:38:12.989Z,1018.15
2019-04-11T08:39:14.267Z,1018.10
2019-04-11T08:40:13.473Z,1018.11
2019-04-11T08:41:13.522Z,1018.14
2019-04-11T08:42:13.006Z,1018.12
2019-04-11T08:43:13.022Z,1018.16
2019-04-11T08:44:13.039Z,1018.11
2019-04-11T08:45:13.055Z,1018.11
2019-04-11T08:46:13.070Z,1018.11
2019-04-11T08:47:13.089Z,1018.13
2019-04-11T08:48:13.102Z,1018.16
2019-04-11T08:49:13.184Z,1018.14
2019-04-11T08:50:14.282Z,1018.15
2019-04-11T08:51:13.149Z,1018.13
2019-04-11T08:52:13.900Z,1018.17
2019-04-11T08:53:13.188Z,1018.14
2019-04-11T08:54:13.327Z,1018.19
2019-04-11T08:55:15.982Z,1018.19
2019-04-11T08:56:13.232Z,1018.21
2019-04-11T08:57:13.752Z,1018.22
2019-04-11T08:58:14.149Z,1018.18
2019-04-11T08:59:13.532Z,1018.21
2019-04-11T09:00:13.750Z,1018.20
2019-04-11T09:01:13.782Z,1018.19
2019-04-11T09:02:13.332Z,1018.20
2019-04-11T09:03:13.527Z,1018.18
2019-04-11T09:04:14.978Z,1018.19
2019-04-11T09:05:16.958Z,1018.22
2019-04-11T09:06:14.571Z,1018.17
2019-04-11T09:07:13.593Z,1018.17
2019-04-11T09:08:14.211Z,1018.16
2019-04-11T09:09:13.449Z,1018.16
2019-04-11T09:10:13.570Z,1018.14
2019-04-11T09:11:14.821Z,1018.21
2019-04-11T09:12:14.182Z,1018.20
2019-04-11T09:13:13.514Z,1018.21
2019-04-11T09:14:13.761Z,1018.13
2019-04-11T09:15:14.526Z,1018.16
2019-04-11T09:16:13.564Z,1018.16
2019-04-11T09:17:14.360Z,1018.22
2019-04-11T09:18:15.059Z,1018.18
2019-04-11T09:19:14.660Z,1018.19
2019-04-11T09:20:13.705Z,1018.22
2019-04-11T09:21:13.646Z,1018.15
2019-04-11T09:22:13.666Z,1018.21
2019-04-11T09:23:13.682Z,1018.21
2019-04-11T09:24:15.263Z,1018.19
2019-04-11T09:25:14.804Z,1018.24
2019-04-11T09:26:13.989Z,1018.28
2019-04-11T09:27:14.320Z,1018.24
2019-04-11T09:28:13.766Z,1018.25
2019-04-11T09:29:13.784Z,1018.26
2019-04-11T09:30:15.680Z,1018.24
2019-04-11T09:31:15.296Z,1018.19
2019-04-11T09:32:13.882Z,1018.28
2019-04-11T09:33:14.955Z,1018.17
2019-04-11T09:34:13.864Z,1018.25
2019-04-11T09:35:14.386Z,1018.21
2019-04-11T09:36:13.908Z,1018.27
2019-04-11T09:37:16.019Z,1018.24
2019-04-11T09:38:14.016Z,1018.16
2019-04-11T09:39:15.063Z,1018.20
2019-04-11T09:40:15.260Z,1018.21
2019-04-11T09:41:14.374Z,1018.21
2019-04-11T09:42:14.005Z,1018.21
2019-04-11T09:43:14.020Z,1018.23
2019-04-11T09:44:14.856Z,1018.20
2019-04-11T09:45:14.132Z,1018.20
2019-04-11T09:46:14.469Z,1018.16
2019-04-11T09:47:14.092Z,1018.19
2019-04-11T09:48:17.331Z,1018.20
2019-04-11T09:49:15.017Z,1018.16
2019-04-11T09:50:14.142Z,1018.15
2019-04-11T09:51:14.158Z,1018.22
2019-04-11T09:52:14.313Z,1018.26
2019-04-11T09:53:14.237Z,1018.27
2019-04-11T09:54:15.469Z,1018.28
2019-04-11T09:55:15.001Z,1018.24
2019-04-11T09:56:15.180Z,1018.20
2019-04-11T09:57:14.264Z,1018.23
2019-04-11T09:58:15.235Z,1018.30
2019-04-11T09:59:14.405Z,1018.24
2019-04-11T10:00:14.451Z,1018.21
2019-04-11T10:01:14.339Z,1018.22
2019-04-11T10:02:14.587Z,1018.23
2019-04-11T10:03:15.306Z,1018.23
2019-04-11T10:04:14.450Z,1018.18
2019-04-11T10:05:14.405Z,1018.23
2019-04-11T10:06:15.776Z,1018.21
2019-04-11T10:07:14.442Z,1018.20
2019-04-11T10:08:14.875Z,1018.15
2019-04-11T10:09:15.636Z,1018.24
2019-04-11T10:10:14.873Z,1018.15
2019-04-11T10:11:15.560Z,1018.17
2019-04-11T10:12:15.808Z,1018.21
2019-04-11T10:13:14.547Z,1018.21
2019-04-11T10:14:15.572Z,1018.16
2019-04-11T10:15:15.460Z,1018.12
2019-04-11T10:16:15.807Z,1018.19
2019-04-11T10:17:14.897Z,1018.15
2019-04-11T10:18:22.869Z,1018.15
2019-04-11T10:19:15.685Z,1018.20
2019-04-11T10:20:14.698Z,1018.20
2019-04-11T10:21:15.236Z,1018.22
2019-04-11T10:22:15.101Z,1018.25
2019-04-11T10:23:14.723Z,1018.25
2019-04-11T10:24:18.933Z,1018.25
2019-04-11T10:25:14.934Z,1018.21
2019-04-11T10:26:15.941Z,1018.30
2019-04-11T10:27:14.810Z,1018.25
2019-04-11T10:28:15.422Z,1018.22
2019-04-11T10:29:14.973Z,1018.18
2019-04-11T10:30:15.225Z,1018.24
2019-04-11T10:31:14.868Z,1018.22
2019-04-11T10:32:14.998Z,1018.20
2019-04-11T10:33:15.038Z,1018.17
2019-04-11T10:34:14.923Z,1018.19
2019-04-11T10:35:17.530Z,1018.20
2019-04-11T10:36:14.968Z,1018.15
2019-04-11T10:37:15.822Z,1018.12
2019-04-11T10:38:16.180Z,1018.12
2019-04-11T10:39:15.355Z,1018.20
2019-04-11T10:40:15.587Z,1018.16
2019-04-11T10:41:15.055Z,1018.14
2019-04-11T10:42:15.074Z,1018.14
2019-04-11T10:43:16.108Z,1018.18
2019-04-11T10:44:15.945Z,1018.16
2019-04-11T10:45:15.300Z,1018.20
2019-04-11T10:46:15.424Z,1018.12
2019-04-11T10:47:16.451Z,1018.20
2019-04-11T10:48:15.889Z,1018.17
2019-04-11T10:49:15.203Z,1018.20
2019-04-11T10:50:15.547Z,1018.13
2019-04-11T10:51:15.483Z,1018.14
2019-04-11T10:52:15.247Z,1018.13
2019-04-11T10:53:16.676Z,1018.14
2019-04-11T10:54:15.593Z,1018.17
2019-04-11T10:55:15.706Z,1018.11
2019-04-11T10:56:15.996Z,1018.18
2019-04-11T10:57:15.962Z,1018.17
2019-04-11T10:58:16.274Z,1018.19
2019-04-11T10:59:15.504Z,1018.12
2019-04-11T11:00:15.635Z,1018.12
2019-04-11T11:01:15.750Z,1018.17
2019-04-11T11:02:15.440Z,1018.21
2019-04-11T11:03:15.454Z,1018.17
2019-04-11T11:04:15.838Z,1018.20
2019-04-11T11:05:17.956Z,1018.18
2019-04-11T11:06:15.595Z,1018.18
2019-04-11T11:07:16.203Z,1018.20
2019-04-11T11:08:15.533Z,1018.24
2019-04-11T11:09:15.551Z,1018.25
2019-04-11T11:10:15.571Z,1018.25
2019-04-11T11:11:16.439Z,1018.25
2019-04-11T11:12:16.881Z,1018.25
2019-04-11T11:13:16.026Z,1018.26
2019-04-11T11:14:15.644Z,1018.29
2019-04-11T11:15:15.705Z,1018.31
2019-04-11T11:16:15.960Z,1018.27
2019-04-11T11:17:37.337Z,1018.24
2019-04-11T11:18:49.123Z,1018.21
2019-04-11T11:19:36.695Z,1018.22
2019-04-11T11:20:22.313Z,1018.21
2019-04-11T11:21:15.772Z,1018.24
2019-04-11T11:22:16.726Z,1018.26
2019-04-11T11:23:16.145Z,1018.23
2019-04-11T11:24:15.832Z,1018.30
2019-04-11T11:25:18.112Z,1018.30
2019-04-11T11:26:20.874Z,1018.22
2019-04-11T11:27:15.986Z,1018.22
2019-04-11T11:28:16.000Z,1018.33
2019-04-11T11:29:17.491Z,1018.29
2019-04-11T11:30:15.999Z,1018.27
2019-04-11T11:31:16.043Z,1018.31
2019-04-11T11:32:16.762Z,1018.29
2019-04-11T11:33:16.107Z,1018.27
2019-04-11T11:34:19.810Z,1018.26
2019-04-11T11:35:16.029Z,1018.28
2019-04-11T11:36:17.232Z,1018.31
2019-04-11T11:37:17.423Z,1018.24
2019-04-11T11:38:16.082Z,1018.28
2019-04-11T11:39:17.409Z,1018.26
2019-04-11T11:40:17.988Z,1018.30
2019-04-11T11:41:16.352Z,1018.36
2019-04-11T11:42:16.152Z,1018.31
2019-04-11T11:43:16.933Z,1018.36
2019-04-11T11:44:16.189Z,1018.33
2019-04-11T11:45:17.290Z,1018.38
2019-04-11T11:46:17.513Z,1018.36
2019-04-11T11:47:17.380Z,1018.36
2019-04-11T11:48:19.313Z,1018.35
2019-04-11T11:49:29.594Z,1018.37
2019-04-11T11:50:19.850Z,1018.38
2019-04-11T11:51:17.250Z,1018.39
2019-04-11T11:52:17.205Z,1018.32
2019-04-11T11:53:16.470Z,1018.30
2019-04-11T11:54:17.577Z,1018.37
2019-04-11T11:55:18.981Z,1018.32
2019-04-11T11:56:16.404Z,1018.34
2019-04-11T11:57:16.422Z,1018.34
2019-04-11T11:58:17.345Z,1018.33
2019-04-11T11:59:16.966Z,1018.34
2019-04-11T12:00:16.905Z,1018.38
2019-04-11T12:01:17.679Z,1018.35
2019-04-11T12:02:18.254Z,1018.35
2019-04-11T12:03:17.028Z,1018.30
2019-04-11T12:04:16.937Z,1018.28
2019-04-11T12:05:18.478Z,1018.29
2019-04-11T12:06:19.786Z,1018.32
2019-04-11T12:07:16.809Z,1018.33
2019-04-11T12:08:18.180Z,1018.32